sensor_id;sensor_type;location;lat;lon;timestamp;temperature;humidity
27534;DHT22;14973;51.460;7.008;2023-02-28T00:01:00;0.30;99.90
27534;DHT22;14973;51.460;7.008;2023-02-28T00:03:26;0.20;99.90
27534;DHT22;14973;51.460;7.008;2023-02-28T00:05:52;0.20;99.90
27534;DHT22;14973;51.460;7.008;2023-02-28T00:08:17;0.20;99.90
27534;DHT22;14973;51.460;7.008;2023-02-28T00:10:43;0.20;99.90
27534;DHT22;14973;51.460;7.008;2023-02-28T00:13:09;0.10;99.90
27534;DHT22;14973;51.460;7.008;2023-02-28T00:15:34;0.10;99.90
27534;DHT22;14973;51.460;7.008;2023-02-28T00:18:01;0.00;99.90
27534;DHT22;14973;51.460;7.008;2023-02-28T00:20:27;0.20;99.90
27534;DHT22;14973;51.460;7.008;2023-02-28T00:22:53;0.30;99.90
27534;DHT22;14973;51.460;7.008;2023-02-28T00:25:23;0.30;99.90
27534;DHT22;14973;51.460;7.008;2023-02-28T00:27:49;0.30;99.90
27534;DHT22;14973;51.460;7.008;2023-02-28T00:30:20;0.20;99.90
27534;DHT22;14973;51.460;7.008;2023-02-28T00:32:47;0.20;99.90
27534;DHT22;14973;51.460;7.008;2023-02-28T00:35:12;0.20;99.90
27534;DHT22;14973;51.460;7.008;2023-02-28T00:37:38;0.10;99.90
27534;DHT22;14973;51.460;7.008;2023-02-28T00:40:04;0.10;99.90
27534;DHT22;14973;51.460;7.008;2023-02-28T00:42:31;0.10;99.90
27534;DHT22;14973;51.460;7.008;2023-02-28T00:44:57;0.10;99.90
27534;DHT22;14973;51.460;7.008;2023-02-28T00:47:23;0.00;99.90
27534;DHT22;14973;51.460;7.008;2023-02-28T00:49:48;0.00;99.90
27534;DHT22;14973;51.460;7.008;2023-02-28T00:52:14;0.00;99.90
27534;DHT22;14973;51.460;7.008;2023-02-28T00:54:39;0.00;99.90
27534;DHT22;14973;51.460;7.008;2023-02-28T00:57:05;-0.20;99.90
27534;DHT22;14973;51.460;7.008;2023-02-28T00:59:31;-0.20;99.90
27534;DHT22;14973;51.460;7.008;2023-02-28T01:01:56;-0.20;99.90
27534;DHT22;14973;51.460;7.008;2023-02-28T01:04:22;-0.30;99.90
27534;DHT22;14973;51.460;7.008;2023-02-28T01:06:47;-0.30;99.90
27534;DHT22;14973;51.460;7.008;2023-02-28T01:09:13;-0.40;99.90
27534;DHT22;14973;51.460;7.008;2023-02-28T01:11:39;-0.50;99.90
27534;DHT22;14973;51.460;7.008;2023-02-28T01:14:08;-0.50;99.90
27534;DHT22;14973;51.460;7.008;2023-02-28T01:16:33;-0.50;99.90
27534;DHT22;14973;51.460;7.008;2023-02-28T01:18:59;-0.50;99.90
27534;DHT22;14973;51.460;7.008;2023-02-28T01:21:25;-0.50;99.90
27534;DHT22;14973;51.460;7.008;2023-02-28T01:23:51;-0.50;99.90
27534;DHT22;14973;51.460;7.008;2023-02-28T01:26:21;-0.50;99.90
27534;DHT22;14973;51.460;7.008;2023-02-28T01:28:48;-0.60;99.90
27534;DHT22;14973;51.460;7.008;2023-02-28T01:31:14;-0.50;99.90
27534;DHT22;14973;51.460;7.008;2023-02-28T01:33:40;-0.50;99.90
27534;DHT22;14973;51.460;7.008;2023-02-28T01:36:11;-0.60;99.90
27534;DHT22;14973;51.460;7.008;2023-02-28T01:38:37;-0.70;99.90
27534;DHT22;14973;51.460;7.008;2023-02-28T01:41:04;-0.70;99.90
27534;DHT22;14973;51.460;7.008;2023-02-28T01:46:15;-0.60;99.90
27534;DHT22;14973;51.460;7.008;2023-02-28T01:48:49;-0.60;99.90
27534;DHT22;14973;51.460;7.008;2023-02-28T01:54:07;-0.60;99.90
27534;DHT22;14973;51.460;7.008;2023-02-28T01:56:41;-0.70;99.90
27534;DHT22;14973;51.460;7.008;2023-02-28T01:59:09;-0.70;99.90
27534;DHT22;14973;51.460;7.008;2023-02-28T02:01:35;-0.80;99.90
27534;DHT22;14973;51.460;7.008;2023-02-28T02:04:02;-0.90;99.90
27534;DHT22;14973;51.460;7.008;2023-02-28T02:06:38;-0.80;99.90
27534;DHT22;14973;51.460;7.008;2023-02-28T02:09:04;-0.90;99.90
27534;DHT22;14973;51.460;7.008;2023-02-28T02:11:31;-0.90;99.90
27534;DHT22;14973;51.460;7.008;2023-02-28T02:14:53;-0.90;99.90
27534;DHT22;14973;51.460;7.008;2023-02-28T02:17:17;-0.90;99.90
27534;DHT22;14973;51.460;7.008;2023-02-28T02:20:01;-1.00;99.90
27534;DHT22;14973;51.460;7.008;2023-02-28T02:25:26;-1.00;99.90
27534;DHT22;14973;51.460;7.008;2023-02-28T02:31:26;-1.10;99.90
27534;DHT22;14973;51.460;7.008;2023-02-28T02:39:53;-1.00;99.90
27534;DHT22;14973;51.460;7.008;2023-02-28T02:42:29;-1.00;99.90
27534;DHT22;14973;51.460;7.008;2023-02-28T02:45:09;-1.00;99.90
27534;DHT22;14973;51.460;7.008;2023-02-28T02:47:39;-1.00;99.90
27534;DHT22;14973;51.460;7.008;2023-02-28T02:50:08;-1.00;99.90
27534;DHT22;14973;51.460;7.008;2023-02-28T02:52:46;-1.00;99.90
27534;DHT22;14973;51.460;7.008;2023-02-28T02:55:14;-1.00;99.90
27534;DHT22;14973;51.460;7.008;2023-02-28T02:58:10;-1.00;99.90
27534;DHT22;14973;51.460;7.008;2023-02-28T03:00:41;-1.00;99.90
27534;DHT22;14973;51.460;7.008;2023-02-28T03:03:09;-1.10;99.90
27534;DHT22;14973;51.460;7.008;2023-02-28T03:05:46;-1.00;99.90
27534;DHT22;14973;51.460;7.008;2023-02-28T03:08:13;-1.00;99.90
27534;DHT22;14973;51.460;7.008;2023-02-28T03:10:41;-1.10;99.90
27534;DHT22;14973;51.460;7.008;2023-02-28T03:18:32;-1.10;99.90
27534;DHT22;14973;51.460;7.008;2023-02-28T03:21:38;-1.10;99.90
27534;DHT22;14973;51.460;7.008;2023-02-28T03:24:08;-1.00;99.90
27534;DHT22;14973;51.460;7.008;2023-02-28T03:26:41;-1.10;99.90
27534;DHT22;14973;51.460;7.008;2023-02-28T03:29:11;-1.10;99.90
27534;DHT22;14973;51.460;7.008;2023-02-28T03:31:58;-1.10;99.90
27534;DHT22;14973;51.460;7.008;2023-02-28T03:34:42;-1.10;99.90
27534;DHT22;14973;51.460;7.008;2023-02-28T03:37:14;-1.10;99.90
27534;DHT22;14973;51.460;7.008;2023-02-28T03:39:47;-1.10;99.90
27534;DHT22;14973;51.460;7.008;2023-02-28T03:42:31;-1.10;99.90
27534;DHT22;14973;51.460;7.008;2023-02-28T03:45:08;-1.20;99.90
27534;DHT22;14973;51.460;7.008;2023-02-28T03:47:48;-1.20;99.90
27534;DHT22;14973;51.460;7.008;2023-02-28T03:50:21;-1.20;99.90
27534;DHT22;14973;51.460;7.008;2023-02-28T03:52:58;-1.20;99.90
27534;DHT22;14973;51.460;7.008;2023-02-28T03:55:29;-1.30;99.90
27534;DHT22;14973;51.460;7.008;2023-02-28T03:58:04;-1.30;99.90
27534;DHT22;14973;51.460;7.008;2023-02-28T04:00:37;-1.30;99.90
27534;DHT22;14973;51.460;7.008;2023-02-28T04:03:04;-1.30;99.90
27534;DHT22;14973;51.460;7.008;2023-02-28T04:05:30;-1.30;99.90
27534;DHT22;14973;51.460;7.008;2023-02-28T04:08:06;-1.30;99.90
27534;DHT22;14973;51.460;7.008;2023-02-28T04:10:32;-1.30;99.90
27534;DHT22;14973;51.460;7.008;2023-02-28T04:12:58;-1.30;99.90
27534;DHT22;14973;51.460;7.008;2023-02-28T04:15:24;-1.30;99.90
27534;DHT22;14973;51.460;7.008;2023-02-28T04:17:50;-1.30;99.90
27534;DHT22;14973;51.460;7.008;2023-02-28T04:20:16;-1.30;99.90
27534;DHT22;14973;51.460;7.008;2023-02-28T04:22:42;-1.40;99.90
27534;DHT22;14973;51.460;7.008;2023-02-28T04:25:07;-1.40;99.90
27534;DHT22;14973;51.460;7.008;2023-02-28T04:27:33;-1.50;99.90
27534;DHT22;14973;51.460;7.008;2023-02-28T04:29:59;-1.50;99.90
27534;DHT22;14973;51.460;7.008;2023-02-28T04:32:25;-1.60;99.90
27534;DHT22;14973;51.460;7.008;2023-02-28T04:34:50;-1.60;99.90
27534;DHT22;14973;51.460;7.008;2023-02-28T04:37:16;-1.60;99.90
27534;DHT22;14973;51.460;7.008;2023-02-28T04:39:42;-1.60;99.90
27534;DHT22;14973;51.460;7.008;2023-02-28T04:42:08;-1.60;99.90
27534;DHT22;14973;51.460;7.008;2023-02-28T04:44:34;-1.60;99.90
27534;DHT22;14973;51.460;7.008;2023-02-28T04:47:00;-1.60;99.90
27534;DHT22;14973;51.460;7.008;2023-02-28T04:49:25;-1.60;99.90
27534;DHT22;14973;51.460;7.008;2023-02-28T04:51:51;-1.60;99.90
27534;DHT22;14973;51.460;7.008;2023-02-28T04:54:18;-1.50;99.90
27534;DHT22;14973;51.460;7.008;2023-02-28T04:56:44;-1.50;99.90
27534;DHT22;14973;51.460;7.008;2023-02-28T04:59:09;-1.50;99.90
27534;DHT22;14973;51.460;7.008;2023-02-28T05:01:35;-1.50;99.90
27534;DHT22;14973;51.460;7.008;2023-02-28T05:04:03;-1.60;99.90
27534;DHT22;14973;51.460;7.008;2023-02-28T05:06:31;-1.70;99.90
27534;DHT22;14973;51.460;7.008;2023-02-28T05:08:57;-1.70;99.90
27534;DHT22;14973;51.460;7.008;2023-02-28T05:11:28;-1.60;99.90
27534;DHT22;14973;51.460;7.008;2023-02-28T05:13:58;-1.60;99.90
27534;DHT22;14973;51.460;7.008;2023-02-28T05:16:24;-1.60;99.90
27534;DHT22;14973;51.460;7.008;2023-02-28T05:18:50;-1.50;99.90
27534;DHT22;14973;51.460;7.008;2023-02-28T05:23:51;-1.50;99.90
27534;DHT22;14973;51.460;7.008;2023-02-28T05:26:16;-1.60;99.90
27534;DHT22;14973;51.460;7.008;2023-02-28T05:28:42;-1.60;99.90
27534;DHT22;14973;51.460;7.008;2023-02-28T05:31:10;-1.60;99.90
27534;DHT22;14973;51.460;7.008;2023-02-28T05:33:36;-1.70;99.90
27534;DHT22;14973;51.460;7.008;2023-02-28T05:36:02;-1.80;99.90
27534;DHT22;14973;51.460;7.008;2023-02-28T05:38:28;-1.80;99.90
27534;DHT22;14973;51.460;7.008;2023-02-28T05:40:53;-1.90;99.90
27534;DHT22;14973;51.460;7.008;2023-02-28T05:43:19;-1.90;99.90
27534;DHT22;14973;51.460;7.008;2023-02-28T05:45:44;-1.90;99.90
27534;DHT22;14973;51.460;7.008;2023-02-28T05:48:10;-1.90;99.90
27534;DHT22;14973;51.460;7.008;2023-02-28T05:50:36;-1.90;99.90
27534;DHT22;14973;51.460;7.008;2023-02-28T05:53:01;-1.90;99.90
27534;DHT22;14973;51.460;7.008;2023-02-28T05:55:27;-2.00;99.90
27534;DHT22;14973;51.460;7.008;2023-02-28T05:57:53;-1.90;99.90
27534;DHT22;14973;51.460;7.008;2023-02-28T06:00:18;-1.90;99.90
27534;DHT22;14973;51.460;7.008;2023-02-28T06:02:44;-1.90;99.90
27534;DHT22;14973;51.460;7.008;2023-02-28T06:05:15;-2.00;99.90
27534;DHT22;14973;51.460;7.008;2023-02-28T06:07:42;-1.90;99.90
27534;DHT22;14973;51.460;7.008;2023-02-28T06:10:09;-1.90;99.90
27534;DHT22;14973;51.460;7.008;2023-02-28T06:12:34;-1.90;99.90
27534;DHT22;14973;51.460;7.008;2023-02-28T06:15:00;-2.00;99.90
27534;DHT22;14973;51.460;7.008;2023-02-28T06:17:26;-2.00;99.90
27534;DHT22;14973;51.460;7.008;2023-02-28T06:19:51;-2.10;99.90
27534;DHT22;14973;51.460;7.008;2023-02-28T06:22:17;-2.10;99.90
27534;DHT22;14973;51.460;7.008;2023-02-28T06:24:42;-2.20;99.90
27534;DHT22;14973;51.460;7.008;2023-02-28T06:27:08;-2.30;99.90
27534;DHT22;14973;51.460;7.008;2023-02-28T06:29:34;-2.30;99.90
27534;DHT22;14973;51.460;7.008;2023-02-28T06:32:00;-2.30;99.90
27534;DHT22;14973;51.460;7.008;2023-02-28T06:34:26;-2.20;99.90
27534;DHT22;14973;51.460;7.008;2023-02-28T06:36:52;-2.10;99.90
27534;DHT22;14973;51.460;7.008;2023-02-28T06:39:18;-2.10;99.90
27534;DHT22;14973;51.460;7.008;2023-02-28T06:41:44;-2.10;99.90
27534;DHT22;14973;51.460;7.008;2023-02-28T06:44:21;-2.00;99.90
27534;DHT22;14973;51.460;7.008;2023-02-28T06:46:47;-1.90;99.90
27534;DHT22;14973;51.460;7.008;2023-02-28T06:49:12;-1.90;99.90
27534;DHT22;14973;51.460;7.008;2023-02-28T06:51:40;-1.80;99.90
27534;DHT22;14973;51.460;7.008;2023-02-28T06:54:07;-1.70;99.90
27534;DHT22;14973;51.460;7.008;2023-02-28T06:56:36;-1.70;99.90
27534;DHT22;14973;51.460;7.008;2023-02-28T06:59:02;-1.60;99.90
27534;DHT22;14973;51.460;7.008;2023-02-28T07:01:29;-1.40;99.90
27534;DHT22;14973;51.460;7.008;2023-02-28T07:03:54;-1.50;99.90
27534;DHT22;14973;51.460;7.008;2023-02-28T07:06:21;-1.50;99.90
27534;DHT22;14973;51.460;7.008;2023-02-28T07:08:53;-1.50;99.90
27534;DHT22;14973;51.460;7.008;2023-02-28T07:11:23;-1.40;99.90
27534;DHT22;14973;51.460;7.008;2023-02-28T07:13:51;-1.40;99.90
27534;DHT22;14973;51.460;7.008;2023-02-28T07:16:17;-1.40;99.90
27534;DHT22;14973;51.460;7.008;2023-02-28T07:18:43;-1.20;99.90
27534;DHT22;14973;51.460;7.008;2023-02-28T07:21:10;-1.10;99.90
27534;DHT22;14973;51.460;7.008;2023-02-28T07:23:36;-0.90;99.90
27534;DHT22;14973;51.460;7.008;2023-02-28T07:26:04;-0.90;99.90
27534;DHT22;14973;51.460;7.008;2023-02-28T07:28:30;-0.80;99.90
27534;DHT22;14973;51.460;7.008;2023-02-28T07:30:56;-0.80;99.90
27534;DHT22;14973;51.460;7.008;2023-02-28T07:33:21;-0.80;99.90
27534;DHT22;14973;51.460;7.008;2023-02-28T07:35:47;-0.70;99.90
27534;DHT22;14973;51.460;7.008;2023-02-28T07:38:13;-0.70;99.90
27534;DHT22;14973;51.460;7.008;2023-02-28T07:40:39;-0.60;99.90
27534;DHT22;14973;51.460;7.008;2023-02-28T07:43:05;-0.50;99.90
27534;DHT22;14973;51.460;7.008;2023-02-28T07:45:31;-0.40;99.90
27534;DHT22;14973;51.460;7.008;2023-02-28T07:48:00;-0.30;99.90
27534;DHT22;14973;51.460;7.008;2023-02-28T07:50:26;-0.30;99.90
27534;DHT22;14973;51.460;7.008;2023-02-28T07:52:54;-0.20;99.90
27534;DHT22;14973;51.460;7.008;2023-02-28T07:55:20;-0.20;99.90
27534;DHT22;14973;51.460;7.008;2023-02-28T07:57:45;-0.10;99.90
27534;DHT22;14973;51.460;7.008;2023-02-28T08:00:11;-0.10;99.90
27534;DHT22;14973;51.460;7.008;2023-02-28T08:02:38;-0.10;99.90
27534;DHT22;14973;51.460;7.008;2023-02-28T08:05:05;0.00;99.90
27534;DHT22;14973;51.460;7.008;2023-02-28T08:07:31;0.00;99.90
27534;DHT22;14973;51.460;7.008;2023-02-28T08:09:58;0.00;99.90
27534;DHT22;14973;51.460;7.008;2023-02-28T08:12:24;0.10;99.90
27534;DHT22;14973;51.460;7.008;2023-02-28T08:14:50;0.20;99.90
27534;DHT22;14973;51.460;7.008;2023-02-28T08:17:16;0.30;99.90
27534;DHT22;14973;51.460;7.008;2023-02-28T08:19:41;0.40;99.90
27534;DHT22;14973;51.460;7.008;2023-02-28T08:22:07;0.60;99.90
27534;DHT22;14973;51.460;7.008;2023-02-28T08:24:33;0.80;99.90
27534;DHT22;14973;51.460;7.008;2023-02-28T08:26:58;1.00;99.90
27534;DHT22;14973;51.460;7.008;2023-02-28T08:29:24;1.20;99.90
27534;DHT22;14973;51.460;7.008;2023-02-28T08:31:50;1.50;99.90
27534;DHT22;14973;51.460;7.008;2023-02-28T08:34:16;2.20;99.90
27534;DHT22;14973;51.460;7.008;2023-02-28T08:36:42;3.50;99.90
27534;DHT22;14973;51.460;7.008;2023-02-28T08:39:10;5.70;99.90
27534;DHT22;14973;51.460;7.008;2023-02-28T08:41:36;7.10;99.90
27534;DHT22;14973;51.460;7.008;2023-02-28T08:44:02;8.70;99.90
27534;DHT22;14973;51.460;7.008;2023-02-28T08:46:28;9.80;99.90
27534;DHT22;14973;51.460;7.008;2023-02-28T08:48:55;10.90;99.90
27534;DHT22;14973;51.460;7.008;2023-02-28T08:51:21;11.70;99.60
27534;DHT22;14973;51.460;7.008;2023-02-28T08:53:53;12.50;96.60
27534;DHT22;14973;51.460;7.008;2023-02-28T08:56:19;12.20;95.90
27534;DHT22;14973;51.460;7.008;2023-02-28T08:58:47;12.80;97.80
27534;DHT22;14973;51.460;7.008;2023-02-28T09:01:20;14.00;94.90
27534;DHT22;14973;51.460;7.008;2023-02-28T09:03:47;14.90;93.00
27534;DHT22;14973;51.460;7.008;2023-02-28T09:06:14;15.40;90.30
27534;DHT22;14973;51.460;7.008;2023-02-28T09:08:41;15.40;88.80
27534;DHT22;14973;51.460;7.008;2023-02-28T09:11:07;15.00;90.50
27534;DHT22;14973;51.460;7.008;2023-02-28T09:13:33;13.50;87.90
27534;DHT22;14973;51.460;7.008;2023-02-28T09:16:00;11.80;90.90
27534;DHT22;14973;51.460;7.008;2023-02-28T09:18:26;11.50;92.00
27534;DHT22;14973;51.460;7.008;2023-02-28T09:20:53;11.60;91.00
27534;DHT22;14973;51.460;7.008;2023-02-28T09:23:19;11.70;91.20
27534;DHT22;14973;51.460;7.008;2023-02-28T09:25:53;12.00;91.50
27534;DHT22;14973;51.460;7.008;2023-02-28T09:28:20;12.40;90.60
27534;DHT22;14973;51.460;7.008;2023-02-28T09:30:48;11.60;91.20
27534;DHT22;14973;51.460;7.008;2023-02-28T09:33:14;11.10;91.70
27534;DHT22;14973;51.460;7.008;2023-02-28T09:35:40;11.00;91.80
27534;DHT22;14973;51.460;7.008;2023-02-28T09:38:06;10.90;92.20
27534;DHT22;14973;51.460;7.008;2023-02-28T09:40:37;11.20;92.50
27534;DHT22;14973;51.460;7.008;2023-02-28T09:43:03;10.70;92.30
27534;DHT22;14973;51.460;7.008;2023-02-28T09:47:59;9.00;94.10
27534;DHT22;14973;51.460;7.008;2023-02-28T09:50:30;8.50;94.50
27534;DHT22;14973;51.460;7.008;2023-02-28T09:52:59;8.50;94.50
27534;DHT22;14973;51.460;7.008;2023-02-28T09:55:44;7.60;95.20
27534;DHT22;14973;51.460;7.008;2023-02-28T09:58:23;6.90;95.80
27534;DHT22;14973;51.460;7.008;2023-02-28T10:01:09;6.70;96.10
27534;DHT22;14973;51.460;7.008;2023-02-28T10:03:43;6.10;96.30
27534;DHT22;14973;51.460;7.008;2023-02-28T10:06:21;6.10;97.80
27534;DHT22;14973;51.460;7.008;2023-02-28T10:09:10;6.10;97.60
27534;DHT22;14973;51.460;7.008;2023-02-28T10:11:39;6.50;97.60
27534;DHT22;14973;51.460;7.008;2023-02-28T10:14:20;6.50;97.50
27534;DHT22;14973;51.460;7.008;2023-02-28T10:16:59;6.60;97.40
27534;DHT22;14973;51.460;7.008;2023-02-28T10:19:42;6.50;97.50
27534;DHT22;14973;51.460;7.008;2023-02-28T10:23:04;5.60;98.20
27534;DHT22;14973;51.460;7.008;2023-02-28T10:25:28;5.70;98.30
27534;DHT22;14973;51.460;7.008;2023-02-28T10:28:16;5.60;98.50
27534;DHT22;14973;51.460;7.008;2023-02-28T10:30:43;5.50;98.70
27534;DHT22;14973;51.460;7.008;2023-02-28T10:33:28;5.30;99.00
27534;DHT22;14973;51.460;7.008;2023-02-28T10:35:55;5.20;99.20
27534;DHT22;14973;51.460;7.008;2023-02-28T10:38:26;5.30;99.30
27534;DHT22;14973;51.460;7.008;2023-02-28T10:41:48;5.50;98.50
27534;DHT22;14973;51.460;7.008;2023-02-28T10:43:49;5.20;99.00
27534;DHT22;14973;51.460;7.008;2023-02-28T10:46:17;5.00;98.90
27534;DHT22;14973;51.460;7.008;2023-02-28T10:49:03;4.80;98.80
27534;DHT22;14973;51.460;7.008;2023-02-28T10:51:38;4.50;99.40
27534;DHT22;14973;51.460;7.008;2023-02-28T10:54:04;4.10;99.90
27534;DHT22;14973;51.460;7.008;2023-02-28T10:56:31;4.10;99.90
27534;DHT22;14973;51.460;7.008;2023-02-28T10:59:01;4.00;99.70
27534;DHT22;14973;51.460;7.008;2023-02-28T11:04:01;4.30;99.40
27534;DHT22;14973;51.460;7.008;2023-02-28T11:06:33;4.40;99.40
27534;DHT22;14973;51.460;7.008;2023-02-28T11:09:02;4.50;99.00
27534;DHT22;14973;51.460;7.008;2023-02-28T11:11:30;4.20;98.60
27534;DHT22;14973;51.460;7.008;2023-02-28T11:14:02;4.40;99.20
27534;DHT22;14973;51.460;7.008;2023-02-28T11:16:36;4.80;98.40
27534;DHT22;14973;51.460;7.008;2023-02-28T11:19:05;5.20;98.30
27534;DHT22;14973;51.460;7.008;2023-02-28T11:21:35;5.30;98.40
27534;DHT22;14973;51.460;7.008;2023-02-28T11:24:27;5.30;97.60
27534;DHT22;14973;51.460;7.008;2023-02-28T11:26:53;5.10;98.10
27534;DHT22;14973;51.460;7.008;2023-02-28T11:29:28;5.00;98.20
27534;DHT22;14973;51.460;7.008;2023-02-28T11:34:27;4.70;98.60
27534;DHT22;14973;51.460;7.008;2023-02-28T11:36:58;4.70;98.80
27534;DHT22;14973;51.460;7.008;2023-02-28T11:39:25;4.60;99.10
27534;DHT22;14973;51.460;7.008;2023-02-28T11:47:46;4.60;99.50
27534;DHT22;14973;51.460;7.008;2023-02-28T11:52:54;5.00;99.50
27534;DHT22;14973;51.460;7.008;2023-02-28T11:55:27;5.20;99.10
27534;DHT22;14973;51.460;7.008;2023-02-28T12:06:58;5.30;99.40
27534;DHT22;14973;51.460;7.008;2023-02-28T12:09:41;5.30;99.30
27534;DHT22;14973;51.460;7.008;2023-02-28T12:15:13;5.90;99.20
27534;DHT22;14973;51.460;7.008;2023-02-28T12:20:28;5.30;98.90
27534;DHT22;14973;51.460;7.008;2023-02-28T12:25:54;5.10;99.70
27534;DHT22;14973;51.460;7.008;2023-02-28T12:28:26;5.30;99.90
27534;DHT22;14973;51.460;7.008;2023-02-28T12:33:35;5.30;99.00
27534;DHT22;14973;51.460;7.008;2023-02-28T12:36:11;5.40;99.40
27534;DHT22;14973;51.460;7.008;2023-02-28T12:38:47;5.30;99.30
27534;DHT22;14973;51.460;7.008;2023-02-28T12:41:18;5.30;99.40
27534;DHT22;14973;51.460;7.008;2023-02-28T12:43:48;5.40;99.50
27534;DHT22;14973;51.460;7.008;2023-02-28T12:46:35;5.20;99.70
27534;DHT22;14973;51.460;7.008;2023-02-28T12:49:24;5.40;99.80
27534;DHT22;14973;51.460;7.008;2023-02-28T12:51:52;5.30;99.20
27534;DHT22;14973;51.460;7.008;2023-02-28T12:57:09;5.30;99.90
27534;DHT22;14973;51.460;7.008;2023-02-28T12:59:51;5.40;99.90
27534;DHT22;14973;51.460;7.008;2023-02-28T13:02:47;5.50;99.90
27534;DHT22;14973;51.460;7.008;2023-02-28T13:05:39;5.80;99.50
27534;DHT22;14973;51.460;7.008;2023-02-28T13:11:00;5.70;99.50
27534;DHT22;14973;51.460;7.008;2023-02-28T13:13:30;5.80;99.40
27534;DHT22;14973;51.460;7.008;2023-02-28T13:16:08;5.70;99.90
27534;DHT22;14973;51.460;7.008;2023-02-28T13:18:45;5.50;99.90
27534;DHT22;14973;51.460;7.008;2023-02-28T13:21:28;5.60;99.90
27534;DHT22;14973;51.460;7.008;2023-02-28T13:29:24;5.70;99.90
27534;DHT22;14973;51.460;7.008;2023-02-28T13:34:39;5.90;99.90
27534;DHT22;14973;51.460;7.008;2023-02-28T13:40:06;6.20;99.90
27534;DHT22;14973;51.460;7.008;2023-02-28T13:42:50;6.20;99.90
27534;DHT22;14973;51.460;7.008;2023-02-28T13:45:29;6.20;99.90
27534;DHT22;14973;51.460;7.008;2023-02-28T13:48:03;6.30;99.90
27534;DHT22;14973;51.460;7.008;2023-02-28T13:50:36;6.20;99.90
27534;DHT22;14973;51.460;7.008;2023-02-28T13:56:03;6.20;99.90
27534;DHT22;14973;51.460;7.008;2023-02-28T13:58:56;6.50;99.90
27534;DHT22;14973;51.460;7.008;2023-02-28T14:07:23;6.10;99.90
27534;DHT22;14973;51.460;7.008;2023-02-28T14:09:56;5.80;99.90
27534;DHT22;14973;51.460;7.008;2023-02-28T14:12:54;5.70;99.90
27534;DHT22;14973;51.460;7.008;2023-02-28T14:18:23;5.80;99.90
27534;DHT22;14973;51.460;7.008;2023-02-28T14:20:53;5.80;99.90
27534;DHT22;14973;51.460;7.008;2023-02-28T14:26:37;6.00;99.90
27534;DHT22;14973;51.460;7.008;2023-02-28T14:37:40;5.70;99.90
27534;DHT22;14973;51.460;7.008;2023-02-28T14:40:48;5.80;99.90
27534;DHT22;14973;51.460;7.008;2023-02-28T14:43:20;5.90;99.90
27534;DHT22;14973;51.460;7.008;2023-02-28T14:45:53;6.00;99.90
27534;DHT22;14973;51.460;7.008;2023-02-28T14:48:22;5.90;99.90
27534;DHT22;14973;51.460;7.008;2023-02-28T14:50:51;5.70;99.90
27534;DHT22;14973;51.460;7.008;2023-02-28T14:53:19;5.50;99.90
27534;DHT22;14973;51.460;7.008;2023-02-28T14:55:46;5.50;99.90
27534;DHT22;14973;51.460;7.008;2023-02-28T14:58:31;5.40;99.90
27534;DHT22;14973;51.460;7.008;2023-02-28T15:01:02;5.40;99.90
27534;DHT22;14973;51.460;7.008;2023-02-28T15:03:34;5.50;99.90
27534;DHT22;14973;51.460;7.008;2023-02-28T15:06:02;5.60;99.90
27534;DHT22;14973;51.460;7.008;2023-02-28T15:08:30;5.30;99.90
27534;DHT22;14973;51.460;7.008;2023-02-28T15:11:11;5.30;99.90
27534;DHT22;14973;51.460;7.008;2023-02-28T15:13:49;5.30;99.90
27534;DHT22;14973;51.460;7.008;2023-02-28T15:16:17;5.40;99.90
27534;DHT22;14973;51.460;7.008;2023-02-28T15:18:49;5.40;99.90
27534;DHT22;14973;51.460;7.008;2023-02-28T15:21:33;5.40;99.90
27534;DHT22;14973;51.460;7.008;2023-02-28T15:26:38;5.40;99.90
27534;DHT22;14973;51.460;7.008;2023-02-28T15:29:10;5.40;99.90
27534;DHT22;14973;51.460;7.008;2023-02-28T15:31:44;5.50;99.90
27534;DHT22;14973;51.460;7.008;2023-02-28T15:34:20;5.40;99.90
27534;DHT22;14973;51.460;7.008;2023-02-28T15:36:47;5.40;99.90
27534;DHT22;14973;51.460;7.008;2023-02-28T15:39:25;5.40;99.90
27534;DHT22;14973;51.460;7.008;2023-02-28T15:41:52;5.40;99.90
27534;DHT22;14973;51.460;7.008;2023-02-28T15:44:35;5.40;99.90
27534;DHT22;14973;51.460;7.008;2023-02-28T15:47:04;5.50;99.90
27534;DHT22;14973;51.460;7.008;2023-02-28T15:49:45;5.50;99.90
27534;DHT22;14973;51.460;7.008;2023-02-28T15:52:16;5.50;99.90
27534;DHT22;14973;51.460;7.008;2023-02-28T15:54:43;5.50;99.90
27534;DHT22;14973;51.460;7.008;2023-02-28T15:57:29;5.40;99.90
27534;DHT22;14973;51.460;7.008;2023-02-28T15:59:57;5.40;99.90
27534;DHT22;14973;51.460;7.008;2023-02-28T16:02:36;5.40;99.90
27534;DHT22;14973;51.460;7.008;2023-02-28T16:05:19;5.30;99.90
27534;DHT22;14973;51.460;7.008;2023-02-28T16:07:47;5.30;99.90
27534;DHT22;14973;51.460;7.008;2023-02-28T16:10:14;5.30;99.90
27534;DHT22;14973;51.460;7.008;2023-02-28T16:12:40;5.20;99.90
27534;DHT22;14973;51.460;7.008;2023-02-28T16:15:22;5.20;99.90
27534;DHT22;14973;51.460;7.008;2023-02-28T16:17:49;5.20;99.90
27534;DHT22;14973;51.460;7.008;2023-02-28T16:20:26;5.10;99.90
27534;DHT22;14973;51.460;7.008;2023-02-28T16:22:53;5.10;99.90
27534;DHT22;14973;51.460;7.008;2023-02-28T16:25:22;5.00;99.90
27534;DHT22;14973;51.460;7.008;2023-02-28T16:27:50;5.00;99.90
27534;DHT22;14973;51.460;7.008;2023-02-28T16:30:26;5.00;99.90
27534;DHT22;14973;51.460;7.008;2023-02-28T16:32:54;4.90;99.90
27534;DHT22;14973;51.460;7.008;2023-02-28T16:35:20;4.90;99.90
27534;DHT22;14973;51.460;7.008;2023-02-28T16:37:46;4.90;99.90
27534;DHT22;14973;51.460;7.008;2023-02-28T16:40:21;4.80;99.90
27534;DHT22;14973;51.460;7.008;2023-02-28T16:42:51;4.80;99.90
27534;DHT22;14973;51.460;7.008;2023-02-28T16:45:23;4.70;99.90
27534;DHT22;14973;51.460;7.008;2023-02-28T16:47:49;4.70;99.90
27534;DHT22;14973;51.460;7.008;2023-02-28T16:50:20;4.60;99.90
27534;DHT22;14973;51.460;7.008;2023-02-28T16:52:47;4.60;99.90
27534;DHT22;14973;51.460;7.008;2023-02-28T16:55:15;4.60;99.90
27534;DHT22;14973;51.460;7.008;2023-02-28T16:57:41;4.60;99.90
27534;DHT22;14973;51.460;7.008;2023-02-28T17:00:12;4.50;99.90
27534;DHT22;14973;51.460;7.008;2023-02-28T17:02:38;4.50;99.90
27534;DHT22;14973;51.460;7.008;2023-02-28T17:05:04;4.40;99.90
27534;DHT22;14973;51.460;7.008;2023-02-28T17:07:30;4.40;99.90
27534;DHT22;14973;51.460;7.008;2023-02-28T17:09:56;4.30;99.90
27534;DHT22;14973;51.460;7.008;2023-02-28T17:12:21;4.30;99.90
27534;DHT22;14973;51.460;7.008;2023-02-28T17:14:47;4.20;99.90
27534;DHT22;14973;51.460;7.008;2023-02-28T17:17:19;4.20;99.90
27534;DHT22;14973;51.460;7.008;2023-02-28T17:19:47;4.10;99.90
27534;DHT22;14973;51.460;7.008;2023-02-28T17:22:13;4.10;99.90
27534;DHT22;14973;51.460;7.008;2023-02-28T17:24:39;4.00;99.90
27534;DHT22;14973;51.460;7.008;2023-02-28T17:27:06;4.00;99.90
27534;DHT22;14973;51.460;7.008;2023-02-28T17:29:34;3.90;99.90
27534;DHT22;14973;51.460;7.008;2023-02-28T17:32:00;3.80;99.90
27534;DHT22;14973;51.460;7.008;2023-02-28T17:34:26;3.80;99.90
27534;DHT22;14973;51.460;7.008;2023-02-28T17:36:52;3.70;99.90
27534;DHT22;14973;51.460;7.008;2023-02-28T17:39:18;3.70;99.90
27534;DHT22;14973;51.460;7.008;2023-02-28T17:41:53;3.70;99.90